Porto Murtinho, Brazil
Current Conditions -  °F | °C
As of 11:00 AM on Thursday 30 Oct 2014 (Local Time) from SBCR Reporting Station
Scattered Clouds Scattered Clouds  
Wind Chill: 88°   Ceiling: Unl
Heat Index: 96°   Visibility: 6mi
Dew Point: 73°   Wind: 10mph
Humidity: 62%   Direction: 10°N
Pressure: 29.77"   Gusts: NA
Location:  21.7°S, 57.88°W
Report Text: SBCR 301400Z 01009KT 9999 SCT030 31/23 Q1008
Loading
Personal Weather Stations






























Interactive Weather Map
Tropical Storm Tracking
New forecast layout! Learn more

10-Day Weather Forecast

Advertisements
Track Severe Weather on mobile